Time;durP1;ratioP1;P1;durP2;ratioP2;P2;SDS_P1;SDS_P2;PMS_P1;PMS_P2;Temp;Humidity;BMP_temperature;BMP_pressure;BME280_temperature;BME280_humidity;BME280_pressure;Samples;Min_cycle;Max_cycle;Signal;HPM_P1;HPM_P2
2022/07/30 00:00:30;;;;;;;6.30;5.70;;;;;;;;;;5005635;28;20764;-53
2022/07/30 00:02:56;;;;;;;5.80;5.27;;;;;;;;;;5029163;28;20564;-53
2022/07/30 00:05:22;;;;;;;5.93;5.43;;;;;;;;;;5028941;28;20453;-53
2022/07/30 00:07:48;;;;;;;9.70;7.07;;;;;;;;;;5020491;28;20591;-53
2022/07/30 00:10:14;;;;;;;5.47;4.93;;;;;;;;;;5027283;28;20579;-53
2022/07/30 00:12:40;;;;;;;5.57;5.07;;;;;;;;;;5029115;28;20217;-53
2022/07/30 00:15:07;;;;;;;5.70;5.20;;;;;;;;;;5032086;28;20640;-53
2022/07/30 00:17:33;;;;;;;6.93;5.67;;;;;;;;;;5021618;28;20622;-53
2022/07/30 00:19:59;;;;;;;5.67;5.17;;;;;;;;;;5032046;28;20597;-53
2022/07/30 00:22:25;;;;;;;6.83;5.47;;;;;;;;;;5030357;28;20504;-53
2022/07/30 00:24:51;;;;;;;5.90;5.37;;;;;;;;;;5030992;28;20181;-54
2022/07/30 00:27:17;;;;;;;5.70;5.20;;;;;;;;;;5031896;28;20175;-53
2022/07/30 00:29:43;;;;;;;6.20;5.00;;;;;;;;;;5025976;28;20204;-53
2022/07/30 00:32:09;;;;;;;6.10;5.50;;;;;;;;;;5023139;28;20182;-54
2022/07/30 00:34:35;;;;;;;5.53;5.03;;;;;;;;;;5026402;28;20531;-55
2022/07/30 00:37:02;;;;;;;7.37;5.73;;;;;;;;;;5029546;28;20233;-54
2022/07/30 00:39:29;;;;;;;6.33;5.27;;;;;;;;;;5029045;28;20524;-54
2022/07/30 00:41:56;;;;;;;6.10;5.60;;;;;;;;;;5025047;28;20180;-54
2022/07/30 00:44:23;;;;;;;6.13;5.53;;;;;;;;;;5027004;28;20582;-54
2022/07/30 00:46:49;;;;;;;6.47;5.87;;;;;;;;;;5026956;28;20175;-54
2022/07/30 00:49:15;;;;;;;6.70;6.10;;;;;;;;;;5027160;28;20232;-54
2022/07/30 00:51:41;;;;;;;6.17;5.57;;;;;;;;;;5026308;28;20189;-54
2022/07/30 00:54:07;;;;;;;6.17;5.57;;;;;;;;;;5025727;28;20216;-54
2022/07/30 00:56:33;;;;;;;6.23;5.63;;;;;;;;;;5026819;28;20184;-54
2022/07/30 00:59:00;;;;;;;5.50;5.00;;;;;;;;;;5024993;28;20236;-54
2022/07/30 01:01:26;;;;;;;6.30;5.70;;;;;;;;;;5024846;28;20703;-54
2022/07/30 01:03:52;;;;;;;5.23;4.80;;;;;;;;;;5026927;28;20980;-54
2022/07/30 01:06:18;;;;;;;5.73;5.23;;;;;;;;;;5024720;28;20248;-54
2022/07/30 01:08:44;;;;;;;5.73;5.20;;;;;;;;;;5024116;28;20616;-54
2022/07/30 01:11:11;;;;;;;6.30;5.80;;;;;;;;;;5027176;28;20804;-53
2022/07/30 01:13:37;;;;;;;5.30;4.90;;;;;;;;;;5022961;28;20228;-54
2022/07/30 01:16:04;;;;;;;5.67;5.17;;;;;;;;;;5024621;28;20186;-54
2022/07/30 01:19:47;;;;;;;6.13;4.83;;;;;;;;;;5027121;28;20182;-54
2022/07/30 01:21:20;;;;;;;5.10;4.70;;;;;;;;;;5027434;28;20202;-54
2022/07/30 01:23:47;;;;;;;5.67;5.00;;;;;;;;;;5025169;28;20535;-54
2022/07/30 01:26:18;;;;;;;5.97;5.37;;;;;;;;;;5009374;28;20189;-54
2022/07/30 01:28:52;;;;;;;5.80;5.30;;;;;;;;;;5025972;28;20198;-53
2022/07/30 01:31:20;;;;;;;5.47;5.00;;;;;;;;;;5028238;28;20632;-53
2022/07/30 01:33:48;;;;;;;5.07;4.67;;;;;;;;;;5024626;28;20475;-54
2022/07/30 01:36:16;;;;;;;5.40;4.90;;;;;;;;;;5010131;28;20649;-53
2022/07/30 01:38:45;;;;;;;6.87;5.80;;;;;;;;;;5020770;28;20629;-53
2022/07/30 01:41:12;;;;;;;5.43;4.93;;;;;;;;;;5022477;28;20572;-53
2022/07/30 01:43:39;;;;;;;5.83;5.27;;;;;;;;;;5021504;28;20182;-53
2022/07/30 01:46:06;;;;;;;5.10;4.57;;;;;;;;;;5027083;28;20191;-53
2022/07/30 01:48:34;;;;;;;5.10;4.60;;;;;;;;;;5024034;28;20742;-53
2022/07/30 01:51:03;;;;;;;5.30;4.90;;;;;;;;;;5029633;28;20660;-53
2022/07/30 01:53:31;;;;;;;4.90;4.50;;;;;;;;;;5025678;28;20678;-53
2022/07/30 01:55:58;;;;;;;5.97;5.40;;;;;;;;;;5023377;28;20550;-53
2022/07/30 01:58:26;;;;;;;6.00;5.40;;;;;;;;;;5025345;28;20211;-53
2022/07/30 02:00:54;;;;;;;8.03;5.50;;;;;;;;;;5005561;28;20676;-53
2022/07/30 02:03:21;;;;;;;12.73;11.93;;;;;;;;;;5021902;28;20186;-53
2022/07/30 02:05:50;;;;;;;5.80;5.37;;;;;;;;;;5023888;28;20297;-53
2022/07/30 02:08:28;;;;;;;6.13;5.53;;;;;;;;;;5020975;28;20184;-53
2022/07/30 02:11:01;;;;;;;5.90;5.40;;;;;;;;;;5024359;28;20173;-54
2022/07/30 02:13:29;;;;;;;6.00;5.50;;;;;;;;;;5021251;28;20236;-53
2022/07/30 02:16:14;;;;;;;5.90;5.40;;;;;;;;;;5024141;28;20181;-54
2022/07/30 02:18:45;;;;;;;6.33;5.73;;;;;;;;;;5019347;28;20550;-53
2022/07/30 02:21:12;;;;;;;6.70;6.20;;;;;;;;;;5024839;28;20740;-53
2022/07/30 02:23:40;;;;;;;6.17;5.67;;;;;;;;;;5021936;28;20636;-54
2022/07/30 02:26:07;;;;;;;6.80;6.20;;;;;;;;;;5024030;28;20178;-54
2022/07/30 02:28:36;;;;;;;6.50;5.63;;;;;;;;;;5022750;28;20205;-54
2022/07/30 02:31:03;;;;;;;6.70;6.20;;;;;;;;;;5026818;28;20185;-53
2022/07/30 02:33:33;;;;;;;6.83;6.23;;;;;;;;;;5007488;28;20198;-53
2022/07/30 02:35:59;;;;;;;6.03;5.53;;;;;;;;;;5025512;28;20173;-53
2022/07/30 02:38:27;;;;;;;6.73;6.13;;;;;;;;;;5022425;28;20645;-53
2022/07/30 02:40:55;;;;;;;7.07;6.40;;;;;;;;;;5025621;28;20182;-53
2022/07/30 02:43:23;;;;;;;7.37;6.67;;;;;;;;;;5008473;28;20217;-53
2022/07/30 02:45:50;;;;;;;7.00;6.37;;;;;;;;;;5025714;28;20700;-53
2022/07/30 02:48:16;;;;;;;6.70;6.13;;;;;;;;;;5018738;28;20189;-53
2022/07/30 02:50:43;;;;;;;7.37;6.77;;;;;;;;;;5028734;28;20184;-53
2022/07/30 02:53:10;;;;;;;7.33;6.33;;;;;;;;;;5007712;28;20592;-54
2022/07/30 02:55:37;;;;;;;7.57;6.77;;;;;;;;;;5023670;28;20180;-53
2022/07/30 02:58:05;;;;;;;8.20;6.67;;;;;;;;;;5027688;28;20178;-53
2022/07/30 03:00:31;;;;;;;7.77;6.70;;;;;;;;;;5028553;28;20178;-53
2022/07/30 03:03:05;;;;;;;7.53;6.83;;;;;;;;;;5004974;28;20231;-53
2022/07/30 03:05:31;;;;;;;6.50;5.90;;;;;;;;;;5029710;28;20265;-53
2022/07/30 03:07:58;;;;;;;7.23;6.63;;;;;;;;;;5024075;28;20618;-54
2022/07/30 03:10:25;;;;;;;7.57;6.97;;;;;;;;;;5009413;28;20193;-54
2022/07/30 03:12:59;;;;;;;7.20;6.50;;;;;;;;;;5025968;28;20201;-54
2022/07/30 03:15:26;;;;;;;8.10;7.23;;;;;;;;;;5014020;28;20548;-54
2022/07/30 03:17:53;;;;;;;13.57;7.57;;;;;;;;;;5024066;28;20263;-54
2022/07/30 03:20:21;;;;;;;7.80;6.53;;;;;;;;;;5028779;28;20205;-54
2022/07/30 03:22:50;;;;;;;7.93;7.13;;;;;;;;;;5028650;28;20184;-53
2022/07/30 03:25:18;;;;;;;7.77;6.97;;;;;;;;;;5027279;28;20267;-54
2022/07/30 03:27:45;;;;;;;12.03;7.20;;;;;;;;;;5031955;28;20181;-54
2022/07/30 03:30:12;;;;;;;13.50;12.57;;;;;;;;;;5027893;28;20264;-54
2022/07/30 03:32:38;;;;;;;7.40;6.77;;;;;;;;;;5025444;28;20366;-53
2022/07/30 03:35:06;;;;;;;8.53;7.57;;;;;;;;;;5028837;28;20174;-53
2022/07/30 03:37:34;;;;;;;7.50;6.90;;;;;;;;;;5031178;28;20228;-53
2022/07/30 03:40:00;;;;;;;7.73;7.10;;;;;;;;;;5027073;28;20193;-53
2022/07/30 03:42:26;;;;;;;9.83;7.57;;;;;;;;;;5028909;28;20195;-53
2022/07/30 03:44:53;;;;;;;7.33;6.30;;;;;;;;;;5031895;28;20182;-53
2022/07/30 03:47:20;;;;;;;7.37;6.77;;;;;;;;;;5008348;28;20192;-54
2022/07/30 03:49:46;;;;;;;7.73;6.97;;;;;;;;;;5028535;28;20198;-54
2022/07/30 03:52:12;;;;;;;11.23;7.77;;;;;;;;;;5033431;28;20232;-54
2022/07/30 03:54:39;;;;;;;7.30;6.60;;;;;;;;;;5027980;28;20177;-53
2022/07/30 03:57:05;;;;;;;7.83;6.73;;;;;;;;;;5028523;28;20242;-53
2022/07/30 03:59:33;;;;;;;7.93;7.13;;;;;;;;;;5011757;28;20641;-53
2022/07/30 04:02:00;;;;;;;9.83;8.17;;;;;;;;;;5028741;28;20182;-54
2022/07/30 04:04:26;;;;;;;8.37;7.70;;;;;;;;;;5029574;28;20186;-53
2022/07/30 04:06:52;;;;;;;8.80;7.90;;;;;;;;;;5029836;28;20182;-53
2022/07/30 04:09:19;;;;;;;12.90;11.90;;;;;;;;;;5026853;28;20652;-53
2022/07/30 04:11:45;;;;;;;8.43;7.63;;;;;;;;;;5029095;28;20565;-53
2022/07/30 04:14:11;;;;;;;8.70;7.37;;;;;;;;;;5029781;28;20741;-53
2022/07/30 04:16:43;;;;;;;8.83;7.90;;;;;;;;;;5028278;28;20213;-54
2022/07/30 04:19:12;;;;;;;9.83;7.77;;;;;;;;;;5010945;28;20191;-53
2022/07/30 04:21:40;;;;;;;7.57;6.90;;;;;;;;;;5030325;28;20189;-53
2022/07/30 04:24:06;;;;;;;8.17;7.47;;;;;;;;;;5027459;28;20530;-53
2022/07/30 04:26:34;;;;;;;8.40;7.60;;;;;;;;;;5012197;28;20189;-54
2022/07/30 04:29:00;;;;;;;8.30;7.50;;;;;;;;;;5027148;28;20316;-54
2022/07/30 04:31:27;;;;;;;8.83;8.03;;;;;;;;;;5028504;28;20206;-53
2022/07/30 04:33:53;;;;;;;11.03;7.77;;;;;;;;;;5027338;28;20181;-54
2022/07/30 04:36:19;;;;;;;9.53;8.70;;;;;;;;;;4996087;28;20641;-54
2022/07/30 04:38:46;;;;;;;11.07;8.93;;;;;;;;;;5022224;28;20587;-53
2022/07/30 04:41:12;;;;;;;9.67;8.70;;;;;;;;;;5028271;28;20633;-54
2022/07/30 04:43:38;;;;;;;8.23;7.53;;;;;;;;;;5023859;28;20227;-53
2022/07/30 04:46:04;;;;;;;12.80;11.50;;;;;;;;;;5037554;28;20195;-53
2022/07/30 04:48:30;;;;;;;16.00;10.93;;;;;;;;;;5023367;28;20238;-54
2022/07/30 04:50:59;;;;;;;16.87;14.60;;;;;;;;;;5029628;28;20264;-53
2022/07/30 04:53:25;;;;;;;20.53;15.93;;;;;;;;;;5005858;28;20666;-54
2022/07/30 04:55:52;;;;;;;17.37;15.57;;;;;;;;;;5029306;28;20201;-53
2022/07/30 04:58:19;;;;;;;17.67;15.43;;;;;;;;;;5025123;28;20228;-54
2022/07/30 05:00:46;;;;;;;21.33;19.33;;;;;;;;;;5010105;28;20193;-54
2022/07/30 05:03:13;;;;;;;15.73;14.13;;;;;;;;;;5026062;28;20200;-54
2022/07/30 05:05:40;;;;;;;16.67;14.97;;;;;;;;;;5027513;28;20256;-54
2022/07/30 05:08:07;;;;;;;17.07;15.33;;;;;;;;;;5009728;28;20182;-54
2022/07/30 05:10:33;;;;;;;19.37;17.27;;;;;;;;;;5027582;28;20209;-54
2022/07/30 05:12:59;;;;;;;22.63;16.63;;;;;;;;;;5026921;28;20187;-54
2022/07/30 05:15:31;;;;;;;18.20;16.40;;;;;;;;;;5024664;28;20219;-54
2022/07/30 05:17:58;;;;;;;18.97;16.03;;;;;;;;;;5026751;28;20652;-54
2022/07/30 05:20:24;;;;;;;17.00;15.30;;;;;;;;;;5022537;28;20277;-53
2022/07/30 05:22:50;;;;;;;16.00;14.43;;;;;;;;;;5008394;28;20440;-54
2022/07/30 05:25:16;;;;;;;23.90;14.63;;;;;;;;;;5022286;28;20711;-53
2022/07/30 05:27:42;;;;;;;16.83;14.80;;;;;;;;;;5027422;28;20185;-53
2022/07/30 05:30:09;;;;;;;18.23;15.43;;;;;;;;;;5027404;28;20686;-54
2022/07/30 05:32:35;;;;;;;21.53;17.53;;;;;;;;;;5025847;28;20177;-53
2022/07/30 05:35:01;;;;;;;27.43;19.67;;;;;;;;;;5026361;28;20249;-53
2022/07/30 05:37:27;;;;;;;28.93;20.23;;;;;;;;;;5023728;28;20178;-54
2022/07/30 05:39:54;;;;;;;23.93;20.00;;;;;;;;;;5006329;28;20652;-53
2022/07/30 05:42:20;;;;;;;26.00;19.13;;;;;;;;;;5017036;28;20236;-54
2022/07/30 05:44:46;;;;;;;22.77;19.27;;;;;;;;;;5024543;28;20265;-53
2022/07/30 05:47:12;;;;;;;22.50;19.10;;;;;;;;;;5019202;28;20182;-53
2022/07/30 05:49:38;;;;;;;29.57;20.67;;;;;;;;;;5018855;28;20205;-54
2022/07/30 05:52:04;;;;;;;22.60;19.43;;;;;;;;;;5023482;28;20173;-54
2022/07/30 05:54:30;;;;;;;29.10;21.57;;;;;;;;;;5007263;28;20624;-53
2022/07/30 05:56:56;;;;;;;28.90;22.77;;;;;;;;;;5024357;28;20178;-54
2022/07/30 05:59:22;;;;;;;26.40;19.53;;;;;;;;;;5006298;28;20182;-53
2022/07/30 06:01:51;;;;;;;21.73;18.60;;;;;;;;;;5007267;28;20544;-53
2022/07/30 06:04:17;;;;;;;20.50;18.27;;;;;;;;;;5012115;28;20220;-53
2022/07/30 06:06:43;;;;;;;18.83;17.00;;;;;;;;;;5024185;28;20624;-53
2022/07/30 06:09:10;;;;;;;18.90;17.00;;;;;;;;;;5019143;28;20558;-53
2022/07/30 06:11:36;;;;;;;19.03;16.53;;;;;;;;;;5024475;28;20223;-53
2022/07/30 06:14:02;;;;;;;18.37;16.37;;;;;;;;;;5012840;28;20272;-53
2022/07/30 06:16:28;;;;;;;18.30;16.60;;;;;;;;;;5018326;28;20182;-54
2022/07/30 06:18:54;;;;;;;20.67;17.13;;;;;;;;;;5022000;28;20198;-54
2022/07/30 06:21:20;;;;;;;19.77;17.67;;;;;;;;;;5041969;28;20226;-53
2022/07/30 06:23:46;;;;;;;20.40;18.30;;;;;;;;;;5024910;28;20236;-53
2022/07/30 06:26:13;;;;;;;23.20;17.90;;;;;;;;;;5030325;28;20185;-53
2022/07/30 06:28:39;;;;;;;20.83;18.63;;;;;;;;;;5028461;28;20209;-54
2022/07/30 06:31:05;;;;;;;22.77;20.43;;;;;;;;;;5033090;28;20181;-53
2022/07/30 06:33:31;;;;;;;22.80;19.57;;;;;;;;;;5028681;28;20261;-54
2022/07/30 06:35:57;;;;;;;22.53;20.17;;;;;;;;;;5012098;28;20180;-54
2022/07/30 06:38:24;;;;;;;23.73;20.90;;;;;;;;;;5022122;28;20593;-53
2022/07/30 06:40:50;;;;;;;25.50;22.70;;;;;;;;;;5028310;28;20182;-54
2022/07/30 06:43:17;;;;;;;23.70;21.17;;;;;;;;;;5029177;28;20654;-54
2022/07/30 06:45:43;;;;;;;21.87;19.53;;;;;;;;;;5028163;28;20536;-54
2022/07/30 06:48:10;;;;;;;22.47;19.27;;;;;;;;;;5026297;28;20277;-54
2022/07/30 06:50:36;;;;;;;26.13;21.00;;;;;;;;;;5031479;28;20204;-54
2022/07/30 06:53:02;;;;;;;20.20;18.27;;;;;;;;;;5026235;28;20697;-54
2022/07/30 06:55:28;;;;;;;22.77;19.70;;;;;;;;;;5029113;28;20644;-54
2022/07/30 06:57:54;;;;;;;21.00;18.80;;;;;;;;;;5022381;28;20201;-54
2022/07/30 07:00:20;;;;;;;19.37;17.37;;;;;;;;;;5026433;28;20644;-54
2022/07/30 07:02:46;;;;;;;21.10;19.10;;;;;;;;;;5006767;28;20234;-54
2022/07/30 07:05:13;;;;;;;19.87;17.83;;;;;;;;;;5027541;28;20723;-54
2022/07/30 07:07:39;;;;;;;19.90;17.77;;;;;;;;;;5024574;28;20280;-54
2022/07/30 07:10:05;;;;;;;19.70;17.67;;;;;;;;;;5029523;28;20549;-54
2022/07/30 07:12:31;;;;;;;20.77;17.43;;;;;;;;;;5026381;28;20573;-54
2022/07/30 07:14:58;;;;;;;18.17;16.13;;;;;;;;;;5026385;28;20585;-54
2022/07/30 07:17:24;;;;;;;16.57;14.87;;;;;;;;;;5029217;28;20524;-54
2022/07/30 07:19:50;;;;;;;15.90;13.30;;;;;;;;;;5039921;28;20208;-54
2022/07/30 07:22:16;;;;;;;14.53;13.13;;;;;;;;;;5024495;28;20521;-54
2022/07/30 07:24:42;;;;;;;13.10;11.70;;;;;;;;;;5010053;28;20159;-54
2022/07/30 07:27:08;;;;;;;14.47;12.63;;;;;;;;;;5017731;28;20559;-54
2022/07/30 07:29:34;;;;;;;12.60;11.37;;;;;;;;;;5030245;28;20284;-54
2022/07/30 07:32:00;;;;;;;13.33;11.87;;;;;;;;;;5023976;28;20224;-54
2022/07/30 07:34:26;;;;;;;10.80;9.70;;;;;;;;;;5023578;28;20551;-54
2022/07/30 07:36:52;;;;;;;11.97;10.87;;;;;;;;;;5029056;28;20580;-54
2022/07/30 07:39:18;;;;;;;11.97;10.63;;;;;;;;;;5029552;28;20181;-54
2022/07/30 07:41:44;;;;;;;11.87;10.70;;;;;;;;;;5016253;28;20641;-54
2022/07/30 07:44:11;;;;;;;11.53;10.40;;;;;;;;;;5049945;28;20628;-54
2022/07/30 07:46:37;;;;;;;9.87;8.97;;;;;;;;;;5038306;28;20210;-54
2022/07/30 07:49:03;;;;;;;10.67;9.63;;;;;;;;;;5029138;28;20201;-57
2022/07/30 07:51:29;;;;;;;11.30;10.00;;;;;;;;;;5028774;28;20193;-55
2022/07/30 07:53:55;;;;;;;10.60;9.50;;;;;;;;;;5009024;28;20170;-55
2022/07/30 07:56:21;;;;;;;10.47;9.57;;;;;;;;;;5030738;28;20197;-54
2022/07/30 07:58:47;;;;;;;15.37;9.43;;;;;;;;;;5008948;28;20184;-55
2022/07/30 08:01:13;;;;;;;9.13;8.23;;;;;;;;;;5025396;28;20599;-55
2022/07/30 08:03:39;;;;;;;9.73;8.83;;;;;;;;;;5028641;28;20529;-54
2022/07/30 08:06:06;;;;;;;10.37;9.23;;;;;;;;;;5012627;28;20641;-55
2022/07/30 08:08:32;;;;;;;9.70;8.00;;;;;;;;;;5016411;28;20185;-54
2022/07/30 08:10:58;;;;;;;8.50;7.70;;;;;;;;;;5029335;28;20170;-54
2022/07/30 08:13:24;;;;;;;8.93;8.03;;;;;;;;;;5036997;28;20713;-55
2022/07/30 08:15:50;;;;;;;9.13;7.50;;;;;;;;;;5030693;28;20210;-54
2022/07/30 08:18:16;;;;;;;8.07;7.37;;;;;;;;;;5001146;28;20239;-54
2022/07/30 08:20:42;;;;;;;9.10;8.00;;;;;;;;;;5028929;28;20206;-54
2022/07/30 08:23:08;;;;;;;8.67;7.87;;;;;;;;;;5016392;28;20541;-55
2022/07/30 08:25:34;;;;;;;9.27;7.60;;;;;;;;;;5032053;28;20233;-54
2022/07/30 08:28:02;;;;;;;9.53;8.63;;;;;;;;;;5028218;28;20228;-55
2022/07/30 08:30:28;;;;;;;6.93;6.33;;;;;;;;;;5010864;28;20676;-54
2022/07/30 08:32:54;;;;;;;8.40;7.60;;;;;;;;;;5017312;28;20755;-55
2022/07/30 08:35:20;;;;;;;7.77;7.03;;;;;;;;;;5035941;28;20523;-56
2022/07/30 08:37:46;;;;;;;7.97;7.27;;;;;;;;;;5018101;28;20178;-56
2022/07/30 08:40:12;;;;;;;6.90;6.30;;;;;;;;;;5024188;28;20178;-55
2022/07/30 08:42:38;;;;;;;7.60;6.93;;;;;;;;;;5018470;28;20217;-55
2022/07/30 08:45:06;;;;;;;7.00;6.40;;;;;;;;;;5044042;28;20544;-55
2022/07/30 08:47:32;;;;;;;6.90;6.03;;;;;;;;;;5020043;28;20190;-54
2022/07/30 08:50:05;;;;;;;7.50;6.40;;;;;;;;;;5028316;28;20401;-54
2022/07/30 08:52:32;;;;;;;7.80;6.47;;;;;;;;;;5028602;28;20196;-54
2022/07/30 08:54:59;;;;;;;7.03;6.43;;;;;;;;;;5026033;28;20245;-55
2022/07/30 08:57:26;;;;;;;7.80;6.77;;;;;;;;;;5027104;28;20727;-54
2022/07/30 08:59:58;;;;;;;7.50;6.27;;;;;;;;;;5042227;28;20740;-54
2022/07/30 09:02:25;;;;;;;7.20;6.50;;;;;;;;;;5027381;28;20190;-54
2022/07/30 09:04:52;;;;;;;6.73;6.13;;;;;;;;;;5028824;28;20251;-54
2022/07/30 09:07:18;;;;;;;7.17;6.47;;;;;;;;;;5028668;28;20453;-54
2022/07/30 09:09:44;;;;;;;6.75;6.15;;;;;;;;;;5037439;28;20910;-54
2022/07/30 09:12:29;;;;;;;6.67;5.93;;;;;;;;;;5024086;28;20592;-55
2022/07/30 09:15:05;;;;;;;6.70;6.07;;;;;;;;;;5005817;28;20232;-55
2022/07/30 09:18:04;;;;;;;7.40;6.70;;;;;;;;;;5000508;28;20260;-55
2022/07/30 09:20:32;;;;;;;9.00;7.53;;;;;;;;;;4977708;28;20230;-55
2022/07/30 09:23:00;;;;;;;6.20;5.70;;;;;;;;;;4998211;28;20195;-54
2022/07/30 09:25:32;;;;;;;8.67;7.57;;;;;;;;;;5008141;28;20844;-54
2022/07/30 09:27:59;;;;;;;6.47;5.87;;;;;;;;;;5014399;28;20167;-54
2022/07/30 09:30:25;;;;;;;6.23;5.47;;;;;;;;;;5024927;28;20273;-54
2022/07/30 09:32:52;;;;;;;7.07;6.37;;;;;;;;;;5022619;28;20178;-54
2022/07/30 09:35:18;;;;;;;6.70;6.00;;;;;;;;;;5028224;28;20206;-54
2022/07/30 09:37:45;;;;;;;8.60;6.83;;;;;;;;;;5022190;28;20248;-53
2022/07/30 09:40:16;;;;;;;7.20;5.60;;;;;;;;;;5021652;28;20556;-54
2022/07/30 09:42:43;;;;;;;6.77;5.83;;;;;;;;;;5020167;28;20777;-54
2022/07/30 09:45:13;;;;;;;6.13;5.40;;;;;;;;;;5009616;28;20185;-55
2022/07/30 09:47:43;;;;;;;8.53;5.87;;;;;;;;;;5018783;28;20250;-54
2022/07/30 09:50:10;;;;;;;7.67;5.17;;;;;;;;;;5026856;28;20261;-55
2022/07/30 09:52:37;;;;;;;5.13;4.73;;;;;;;;;;5007463;28;20707;-54
2022/07/30 09:55:06;;;;;;;5.03;4.63;;;;;;;;;;4991886;28;20200;-54
2022/07/30 09:57:33;;;;;;;5.83;5.23;;;;;;;;;;5000345;28;20186;-55
2022/07/30 10:00:15;;;;;;;5.03;4.63;;;;;;;;;;5026695;28;20177;-54
2022/07/30 10:02:41;;;;;;;5.93;5.30;;;;;;;;;;5017516;28;20410;-54
2022/07/30 10:05:12;;;;;;;6.50;4.67;;;;;;;;;;5005867;28;20736;-54
2022/07/30 10:07:38;;;;;;;4.73;4.33;;;;;;;;;;5009005;28;20690;-53
2022/07/30 10:10:05;;;;;;;6.17;4.60;;;;;;;;;;5007081;28;20197;-54
2022/07/30 10:12:32;;;;;;;5.63;5.03;;;;;;;;;;5021712;28;20181;-55
2022/07/30 10:15:00;;;;;;;5.93;4.27;;;;;;;;;;5039644;28;20251;-55
2022/07/30 10:17:27;;;;;;;6.77;4.07;;;;;;;;;;5030224;28;20182;-55
2022/07/30 10:19:53;;;;;;;5.57;4.33;;;;;;;;;;5025782;28;20201;-58
2022/07/30 10:22:19;;;;;;;4.63;4.30;;;;;;;;;;5020532;28;20526;-54
2022/07/30 10:24:45;;;;;;;4.20;3.80;;;;;;;;;;5020073;28;20605;-54
2022/07/30 10:27:12;;;;;;;4.40;4.03;;;;;;;;;;5022915;28;20170;-55
2022/07/30 10:29:39;;;;;;;4.30;3.73;;;;;;;;;;5019543;28;20236;-54
2022/07/30 10:32:05;;;;;;;5.70;4.00;;;;;;;;;;5018975;28;20649;-55
2022/07/30 10:34:32;;;;;;;4.13;3.73;;;;;;;;;;5007943;28;20256;-55
2022/07/30 10:37:01;;;;;;;6.17;3.87;;;;;;;;;;5015147;28;20228;-55
2022/07/30 10:39:29;;;;;;;6.33;3.90;;;;;;;;;;5004866;28;20170;-56
2022/07/30 10:42:15;;;;;;;5.40;3.93;;;;;;;;;;5021158;28;20206;-55
2022/07/30 10:44:47;;;;;;;5.13;3.27;;;;;;;;;;5024912;28;20221;-55
2022/07/30 10:47:17;;;;;;;3.40;3.20;;;;;;;;;;5034421;28;20180;-55
2022/07/30 10:50:03;;;;;;;4.63;3.83;;;;;;;;;;5023539;28;20211;-56
2022/07/30 10:52:51;;;;;;;5.00;4.00;;;;;;;;;;4998546;28;20184;-55
2022/07/30 10:55:19;;;;;;;4.83;3.40;;;;;;;;;;5015837;28;20197;-56
2022/07/30 10:58:01;;;;;;;3.80;3.50;;;;;;;;;;5023393;28;20194;-55
2022/07/30 11:00:28;;;;;;;3.73;3.40;;;;;;;;;;5038938;28;20192;-56
2022/07/30 11:03:14;;;;;;;5.17;3.50;;;;;;;;;;5017134;28;20673;-55
2022/07/30 11:05:40;;;;;;;3.97;2.97;;;;;;;;;;5008313;28;20164;-55
2022/07/30 11:08:44;;;;;;;3.87;3.10;;;;;;;;;;5022701;28;20184;-55
2022/07/30 11:11:22;;;;;;;3.30;3.10;;;;;;;;;;5016950;28;20195;-55
2022/07/30 11:13:56;;;;;;;3.80;3.50;;;;;;;;;;5030427;28;20244;-55
2022/07/30 11:16:42;;;;;;;3.87;3.57;;;;;;;;;;5032507;28;20304;-56
2022/07/30 11:19:15;;;;;;;4.10;3.80;;;;;;;;;;5015538;28;20201;-55
2022/07/30 11:21:42;;;;;;;4.20;3.33;;;;;;;;;;5010254;28;20184;-55
2022/07/30 11:24:28;;;;;;;3.73;3.47;;;;;;;;;;5001891;28;20702;-56
2022/07/30 11:26:54;;;;;;;4.37;3.47;;;;;;;;;;5029622;28;20556;-55
2022/07/30 11:29:52;;;;;;;3.50;3.30;;;;;;;;;;5026446;28;20213;-55
2022/07/30 11:32:29;;;;;;;6.43;3.27;;;;;;;;;;4979262;28;20197;-55
2022/07/30 11:35:13;;;;;;;3.67;3.30;;;;;;;;;;5012048;28;20189;-55
2022/07/30 11:37:58;;;;;;;4.03;3.60;;;;;;;;;;5023545;28;20162;-55
2022/07/30 11:40:29;;;;;;;3.60;3.30;;;;;;;;;;5029338;28;20165;-56
2022/07/30 11:43:14;;;;;;;3.60;3.30;;;;;;;;;;5029464;28;20182;-55
2022/07/30 11:45:40;;;;;;;3.93;3.17;;;;;;;;;;5030462;28;20174;-55
2022/07/30 11:48:09;;;;;;;3.80;3.50;;;;;;;;;;5025194;28;20174;-57
2022/07/30 11:50:35;;;;;;;3.73;3.50;;;;;;;;;;5029908;28;20608;-55
2022/07/30 11:53:04;;;;;;;3.30;3.00;;;;;;;;;;5010439;28;20186;-56
2022/07/30 11:55:31;;;;;;;4.93;4.00;;;;;;;;;;5034362;28;20170;-55
2022/07/30 11:57:58;;;;;;;6.10;5.60;;;;;;;;;;5017277;28;20194;-55
2022/07/30 12:00:24;;;;;;;4.67;4.17;;;;;;;;;;4988795;28;20173;-55
2022/07/30 12:02:51;;;;;;;5.07;4.37;;;;;;;;;;5027384;28;20183;-56
2022/07/30 12:05:24;;;;;;;6.60;4.03;;;;;;;;;;5029006;28;20547;-55
2022/07/30 12:07:51;;;;;;;3.73;3.50;;;;;;;;;;5017188;28;20187;-56
2022/07/30 12:10:18;;;;;;;4.17;3.50;;;;;;;;;;5038599;28;20208;-55
2022/07/30 12:12:44;;;;;;;3.83;3.53;;;;;;;;;;5026439;28;20561;-55
2022/07/30 12:15:11;;;;;;;3.30;3.00;;;;;;;;;;5040746;28;20227;-53
2022/07/30 12:17:44;;;;;;;4.57;3.10;;;;;;;;;;5037096;28;20670;-55
2022/07/30 12:20:17;;;;;;;7.60;7.10;;;;;;;;;;5007290;28;20201;-55
2022/07/30 12:22:43;;;;;;;3.23;3.03;;;;;;;;;;4999877;28;20651;-55
2022/07/30 12:25:10;;;;;;;3.80;3.50;;;;;;;;;;5023508;28;20194;-55
2022/07/30 12:27:36;;;;;;;4.27;3.90;;;;;;;;;;5004165;28;20204;-53
2022/07/30 12:30:03;;;;;;;3.53;3.23;;;;;;;;;;5026421;28;20257;-54
2022/07/30 12:32:30;;;;;;;3.23;3.00;;;;;;;;;;5011132;28;20205;-55
2022/07/30 12:34:56;;;;;;;3.50;3.30;;;;;;;;;;5008653;28;20185;-54
2022/07/30 12:37:23;;;;;;;3.67;3.37;;;;;;;;;;5020678;28;20648;-55
2022/07/30 12:39:49;;;;;;;4.10;3.80;;;;;;;;;;5003426;28;20196;-54
2022/07/30 12:42:19;;;;;;;3.80;3.50;;;;;;;;;;5026331;28;20202;-55
2022/07/30 12:44:45;;;;;;;3.53;3.23;;;;;;;;;;5029180;28;20173;-54
2022/07/30 12:47:22;;;;;;;4.20;3.80;;;;;;;;;;5005012;28;20687;-55
2022/07/30 12:49:48;;;;;;;3.67;3.37;;;;;;;;;;5023421;28;20206;-55
2022/07/30 12:52:22;;;;;;;3.70;3.40;;;;;;;;;;5028967;28;20241;-55
2022/07/30 12:54:58;;;;;;;3.77;3.47;;;;;;;;;;5031820;28;20598;-55
2022/07/30 12:57:24;;;;;;;4.40;4.07;;;;;;;;;;5034616;28;20180;-55
2022/07/30 13:00:01;;;;;;;3.53;3.23;;;;;;;;;;5031019;28;20180;-55
2022/07/30 13:02:31;;;;;;;4.27;3.50;;;;;;;;;;5023150;28;20293;-54
2022/07/30 13:04:57;;;;;;;3.43;3.13;;;;;;;;;;5027733;28;20585;-54
2022/07/30 13:07:27;;;;;;;3.30;3.10;;;;;;;;;;5011178;28;20272;-55
2022/07/30 13:10:10;;;;;;;3.27;3.07;;;;;;;;;;5025872;28;20266;-55
2022/07/30 13:12:36;;;;;;;4.33;3.30;;;;;;;;;;5024658;28;20175;-55
2022/07/30 13:15:02;;;;;;;4.27;3.50;;;;;;;;;;5026962;28;20588;-55
2022/07/30 13:17:28;;;;;;;3.70;3.40;;;;;;;;;;5027935;28;20172;-55
2022/07/30 13:19:55;;;;;;;4.73;2.97;;;;;;;;;;5028045;28;20201;-55
2022/07/30 13:22:21;;;;;;;3.40;3.10;;;;;;;;;;5003996;28;20182;-54
2022/07/30 13:24:47;;;;;;;4.73;3.37;;;;;;;;;;4997526;28;20178;-55
2022/07/30 13:27:15;;;;;;;4.57;3.30;;;;;;;;;;5012723;28;20221;-55
2022/07/30 13:29:42;;;;;;;3.17;2.97;;;;;;;;;;4995691;28;20209;-55
2022/07/30 13:32:08;;;;;;;4.07;3.40;;;;;;;;;;5009436;28;20335;-55
2022/07/30 13:34:35;;;;;;;3.40;3.10;;;;;;;;;;5010603;28;20190;-56
2022/07/30 13:37:01;;;;;;;4.77;3.90;;;;;;;;;;5029064;28;20249;-55
2022/07/30 13:39:27;;;;;;;5.73;3.60;;;;;;;;;;5026714;28;20671;-56
2022/07/30 13:41:53;;;;;;;3.53;3.27;;;;;;;;;;5008587;28;20191;-55
2022/07/30 13:44:20;;;;;;;4.50;3.10;;;;;;;;;;5028502;28;20617;-56
2022/07/30 13:46:46;;;;;;;3.27;3.07;;;;;;;;;;5009487;28;21218;-56
2022/07/30 13:49:12;;;;;;;3.47;3.10;;;;;;;;;;5026502;28;20205;-55
2022/07/30 13:51:38;;;;;;;3.43;3.13;;;;;;;;;;5026781;28;20189;-55
2022/07/30 13:54:04;;;;;;;3.73;3.50;;;;;;;;;;5024982;28;20541;-56
2022/07/30 13:56:31;;;;;;;3.00;2.80;;;;;;;;;;5027965;28;20735;-56
2022/07/30 13:59:00;;;;;;;3.23;3.03;;;;;;;;;;5040148;28;20705;-55
2022/07/30 14:01:26;;;;;;;3.70;3.40;;;;;;;;;;5010058;28;20174;-55
2022/07/30 14:03:53;;;;;;;3.20;3.00;;;;;;;;;;5022911;28;20181;-55
2022/07/30 14:06:30;;;;;;;3.53;3.30;;;;;;;;;;5041759;28;20202;-55
2022/07/30 14:08:56;;;;;;;3.30;3.00;;;;;;;;;;5006327;28;20187;-55
2022/07/30 14:11:22;;;;;;;4.93;3.40;;;;;;;;;;5026545;28;20183;-54
2022/07/30 14:13:49;;;;;;;3.63;3.03;;;;;;;;;;5009568;28;20871;-54
2022/07/30 14:16:21;;;;;;;3.93;3.20;;;;;;;;;;5009862;28;20288;-55
2022/07/30 14:18:48;;;;;;;3.40;2.70;;;;;;;;;;5008687;28;20201;-55
2022/07/30 14:21:14;;;;;;;5.97;5.67;;;;;;;;;;5028266;28;20672;-55
2022/07/30 14:23:40;;;;;;;3.67;2.70;;;;;;;;;;4990904;28;20289;-55
2022/07/30 14:26:06;;;;;;;3.97;3.07;;;;;;;;;;5022641;28;20186;-55
2022/07/30 14:28:32;;;;;;;2.50;2.30;;;;;;;;;;5008701;28;20237;-55
2022/07/30 14:30:58;;;;;;;2.50;2.40;;;;;;;;;;5027778;28;20565;-54
2022/07/30 14:33:24;;;;;;;2.87;2.60;;;;;;;;;;5022174;28;20186;-56
2022/07/30 14:35:53;;;;;;;3.33;3.13;;;;;;;;;;5009777;28;20215;-56
2022/07/30 14:38:19;;;;;;;4.27;3.90;;;;;;;;;;4992016;28;20194;-55
2022/07/30 14:40:45;;;;;;;3.17;2.97;;;;;;;;;;5017425;28;20192;-55